.
WxDataArchive / Data Records for 2006-12-26
2006-12-25 December 2006 2006-12-27

Data Records for Tuesday, 26 December 2006

Time	Temp	Chill	HIndex	Humid	Dewpt	 Wind 	HiWind	WindDir	Rain 	Barom 
-----	----	-----	------	-----	-----	------	------	-------	-----	----- 
00:00	33.1	33.1	33.1	95	31.8	0	2	0	0.00	29.595 
00:05	32.9	32.9	32.9	95	31.6	0	2	338	0.00	29.595 
00:10	32.9	32.9	32.9	95	31.6	0	2	0	0.00	29.595 
00:15	32.9	32.9	32.9	95	31.6	0	2	0	0.00	29.590 
00:20	32.9	32.9	32.9	95	31.6	0	2	315	0.01	29.590 
00:25	32.9	32.9	32.9	96	31.9	0	3	292	0.00	29.590 
00:30	33.1	33.1	33.1	96	32.1	0	2	292	0.00	29.591 
00:35	33.1	33.1	33.1	96	32.1	0	2	315	0.00	29.591 
00:40	33.2	33.2	33.2	96	32.2	0	2	338	0.01	29.591 
00:45	33.4	33.4	33.4	96	32.4	0	2	315	0.00	29.593 
00:50	33.4	33.4	33.4	96	32.4	0	3	270	0.00	29.593 
00:55	33.4	33.4	33.4	96	32.4	1	3	22	0.00	29.593 
01:00	33.2	33.2	33.2	96	32.2	1	2	22	0.01	29.591 
01:05	33.1	33.1	33.1	96	32.1	0	2	0	0.00	29.591 
01:10	32.9	32.9	32.9	96	31.9	0	1	315	0.00	29.591 
01:15	32.8	32.8	32.8	96	31.8	0	2	338	0.00	29.591 
01:20	32.9	32.9	32.9	96	31.9	0	2	0	0.00	29.591 
01:25	33.1	33.1	33.1	96	32.1	0	2	0	0.00	29.591 
01:30	33.2	33.2	33.2	96	32.2	1	5	0	0.01	29.593 
01:35	33.5	33.5	33.5	96	32.5	0	2	0	0.00	29.593 
01:40	33.8	33.8	33.8	96	32.8	1	4	338	0.01	29.593 
01:45	34.3	34.3	34.3	96	33.3	1	3	338	0.00	29.594 
01:50	34.6	34.6	34.6	96	33.6	1	9	0	0.01	29.594 
01:55	34.7	34.7	34.7	96	33.7	2	4	22	0.00	29.594 
02:00	34.9	34.9	34.9	96	33.9	1	3	338	0.01	29.594 
02:05	34.9	34.9	34.9	95	33.6	1	3	0	0.00	29.594 
02:10	34.9	34.9	34.9	94	33.4	1	3	0	0.01	29.594 
02:15	34.9	34.9	34.9	94	33.4	0	2	315	0.01	29.596 
02:20	34.7	34.7	34.7	94	33.2	0	1	315	0.01	29.596 
02:25	34.7	34.7	34.7	94	33.2	0	2	315	0.01	29.596 
02:30	34.7	34.7	34.7	94	33.2	1	4	0	0.01	29.597 
02:35	34.7	34.7	34.7	95	33.4	0	3	292	0.01	29.597 
02:40	34.9	34.9	34.9	95	33.6	1	2	292	0.00	29.597 
02:45	35.0	35.0	35.0	95	33.7	1	2	315	0.01	29.601 
02:50	35.2	35.2	35.2	95	33.9	1	6	315	0.01	29.601 
02:55	35.2	35.2	35.2	95	33.9	1	3	338	0.00	29.601 
03:00	35.2	35.2	35.2	95	33.9	1	3	315	0.01	29.609 
03:05	35.3	35.3	35.3	95	34.0	1	4	315	0.00	29.609 
03:10	35.3	35.3	35.3	95	34.0	1	3	315	0.01	29.609 
03:15	35.3	35.3	35.3	95	34.0	1	3	338	0.00	29.613 
03:20	35.5	35.5	35.5	95	34.2	1	6	292	0.01	29.613 
03:25	35.5	35.5	35.5	95	34.2	1	3	315	0.00	29.613 
03:30	35.6	35.6	35.6	95	34.3	1	5	0	0.01	29.619 
03:35	35.6	35.6	35.6	95	34.3	1	4	338	0.00	29.619 
03:40	35.6	35.6	35.6	94	34.0	1	5	315	0.00	29.619 
03:45	35.6	35.6	35.6	94	34.0	2	6	315	0.01	29.625 
03:50	35.8	35.8	35.8	94	34.2	2	7	315	0.00	29.625 
03:55	35.6	35.6	35.6	94	34.0	1	4	338	0.01	29.625 
04:00	35.8	35.8	35.8	94	34.2	1	3	0	0.00	29.627 
04:05	35.8	35.8	35.8	94	34.2	1	5	0	0.01	29.627 
04:10	35.6	35.6	35.6	94	34.0	1	3	292	0.00	29.627 
04:15	35.6	35.6	35.6	94	34.0	1	4	338	0.01	29.629 
04:20	35.6	35.6	35.6	94	34.0	2	7	338	0.00	29.629 
04:25	35.6	35.6	35.6	93	33.8	2	6	315	0.00	29.629 
04:30	35.8	35.8	35.8	93	34.0	2	6	315	0.00	29.638 
04:35	35.8	35.8	35.8	93	34.0	1	5	315	0.01	29.638 
04:40	35.8	35.8	35.8	93	34.0	1	4	292	0.00	29.638 
04:45	35.8	35.8	35.8	93	34.0	1	4	315	0.01	29.644 
04:50	35.8	35.8	35.8	93	34.0	1	4	0	0.00	29.644 
04:55	35.8	35.8	35.8	93	34.0	2	5	315	0.00	29.644 
05:00	35.6	35.6	35.6	93	33.8	1	3	338	0.00	29.647 
05:05	35.6	35.6	35.6	93	33.8	1	5	292	0.01	29.647 
05:10	35.5	35.5	35.5	93	33.7	1	3	315	0.00	29.647 
05:15	35.5	35.5	35.5	93	33.7	1	3	338	0.00	29.653 
05:20	35.5	35.5	35.5	93	33.7	1	3	338	0.00	29.653 
05:25	35.5	35.5	35.5	93	33.7	1	5	292	0.00	29.653 
05:30	35.5	35.5	35.5	93	33.7	1	4	270	0.01	29.656 
05:35	35.5	35.5	35.5	93	33.7	1	4	270	0.00	29.656 
05:40	35.5	35.5	35.5	94	33.9	1	6	292	0.00	29.656 
05:45	35.5	35.5	35.5	93	33.7	1	4	338	0.00	29.660 
05:50	35.5	35.5	35.5	93	33.7	1	5	292	0.00	29.660 
05:55	35.6	35.6	35.6	93	33.8	1	3	292	0.00	29.660 
06:00	35.6	35.6	35.6	93	33.8	1	4	315	0.00	29.667 
06:05	35.6	35.6	35.6	93	33.8	1	6	292	0.00	29.667 
06:10	35.8	35.8	35.8	92	33.7	1	5	292	0.00	29.667 
06:15	35.8	35.8	35.8	92	33.7	2	6	338	0.00	29.674 
06:20	35.8	35.8	35.8	92	33.7	1	4	315	0.00	29.674 
06:25	35.6	35.6	35.6	92	33.5	1	6	0	0.01	29.674 
06:30	35.6	35.6	35.6	92	33.5	1	5	292	0.00	29.677 
06:35	35.6	35.6	35.6	92	33.5	1	3	292	0.00	29.677 
06:40	35.5	35.5	35.5	92	33.4	1	4	338	0.00	29.677 
06:45	35.5	35.5	35.5	92	33.4	1	4	0	0.00	29.687 
06:50	35.6	35.6	35.6	92	33.5	1	4	315	0.00	29.687 
06:55	35.6	35.6	35.6	91	33.2	1	4	292	0.00	29.687 
07:00	35.6	35.6	35.6	91	33.2	1	3	292	0.00	29.693 
07:05	35.6	35.6	35.6	91	33.2	1	3	338	0.00	29.693 
07:10	35.6	35.6	35.6	91	33.2	1	5	292	0.00	29.693 
07:15	35.6	35.6	35.6	91	33.2	1	3	292	0.00	29.701 
07:20	35.6	35.6	35.6	91	33.2	2	6	292	0.00	29.701 
07:25	35.6	35.6	35.6	90	33.0	2	5	270	0.01	29.701 
07:30	35.6	35.6	35.6	90	33.0	1	4	292	0.00	29.704 
07:35	35.6	35.6	35.6	90	33.0	1	6	292	0.00	29.704 
07:40	35.6	35.6	35.6	90	33.0	1	5	338	0.00	29.704 
07:45	35.5	35.5	35.5	90	32.9	1	3	292	0.00	29.706 
07:50	35.5	35.5	35.5	89	32.6	2	4	292	0.00	29.706 
07:55	35.5	35.5	35.5	89	32.6	1	3	338	0.00	29.706 
08:00	35.5	35.5	35.5	88	32.3	1	4	292	0.00	29.709 
08:05	35.3	35.3	35.3	88	32.1	1	4	292	0.00	29.709 
08:10	35.3	35.3	35.3	88	32.1	2	5	315	0.00	29.709 
08:15	35.2	35.2	35.2	88	32.0	1	5	270	0.00	29.719 
08:20	35.2	35.2	35.2	87	31.7	1	6	0	0.00	29.719 
08:25	35.2	35.2	35.2	87	31.7	1	3	0	0.00	29.719 
08:30	35.0	35.0	35.0	86	31.2	2	5	22	0.00	29.724 
08:35	35.2	35.2	35.2	86	31.4	1	2	315	0.00	29.724 
08:40	35.2	35.2	35.2	87	31.7	1	5	270	0.00	29.724 
08:45	35.2	35.2	35.2	86	31.4	2	7	0	0.00	29.734 
08:50	35.0	35.0	35.0	86	31.2	2	7	292	0.00	29.734 
08:55	35.0	35.0	35.0	85	31.0	1	3	315	0.00	29.734 
09:00	35.0	35.0	35.0	85	31.0	1	5	315	0.00	29.740 
09:05	35.0	35.0	35.0	86	31.2	1	6	315	0.00	29.740 
09:10	35.0	35.0	35.0	86	31.2	1	3	292	0.00	29.740 
09:15	34.9	34.9	34.9	86	31.1	1	6	338	0.00	29.754 
09:20	34.9	34.9	34.9	85	30.9	1	4	338	0.00	29.754 
09:25	34.9	34.9	34.9	86	31.1	0	2	338	0.00	29.754 
09:30	34.9	34.9	34.9	84	30.6	2	9	338	0.00	29.763 
09:35	34.9	34.9	34.9	82	30.0	2	6	338	0.00	29.763 
09:40	34.9	34.9	34.9	80	29.4	2	6	338	0.00	29.763 
09:45	35.0	35.0	35.0	79	29.2	1	4	0	0.00	29.772 
09:50	35.0	35.0	35.0	81	29.8	1	4	338	0.00	29.772 
09:55	35.0	35.0	35.0	81	29.8	1	9	315	0.00	29.772 
10:00	34.9	34.9	34.9	80	29.4	1	4	315	0.00	29.782 
10:05	35.0	35.0	35.0	79	29.2	2	6	0	0.00	29.782 
10:10	35.0	35.0	35.0	78	28.8	2	5	338	0.00	29.782 
10:15	35.0	35.0	35.0	79	29.2	1	3	338	0.00	29.790 
10:20	35.0	35.0	35.0	80	29.5	1	5	338	0.00	29.790 
10:25	35.0	35.0	35.0	80	29.5	1	3	338	0.00	29.790 
10:30	35.0	35.0	35.0	80	29.5	1	3	338	0.00	29.799 
10:35	35.0	35.0	35.0	79	29.2	1	6	338	0.00	29.799 
10:40	35.2	35.2	35.2	79	29.4	1	3	338	0.00	29.799 
10:45	35.3	35.3	35.3	79	29.4	0	2	292	0.00	29.802 
10:50	35.5	35.5	35.5	78	29.3	1	3	315	0.00	29.802 
10:55	35.6	35.6	35.6	78	29.4	0	2	0	0.00	29.802 
11:00	35.8	35.8	35.8	78	29.6	1	4	270	0.00	29.802 
11:05	35.8	35.8	35.8	77	29.3	1	4	270	0.00	29.802 
11:10	35.9	35.9	35.9	78	29.7	1	4	338	0.00	29.802 
11:15	35.9	35.9	35.9	78	29.7	1	6	292	0.00	29.804 
11:20	35.9	35.9	35.9	78	29.7	0	3	0	0.00	29.804 
11:25	36.0	36.0	36.0	78	29.8	1	2	0	0.00	29.804 
11:30	36.0	36.0	36.0	77	29.5	1	3	292	0.00	29.804 
11:35	36.0	36.0	36.0	78	29.8	0	3	0	0.00	29.804 
11:40	36.0	36.0	36.0	78	29.8	0	3	0	0.00	29.804 
11:45	36.0	36.0	36.0	78	29.8	0	3	0	0.00	29.804 
11:50	36.0	36.0	36.0	78	29.8	0	2	248	0.00	29.804 
11:55	35.9	35.9	35.9	78	29.7	1	5	338	0.00	29.804 
12:00	35.9	35.9	35.9	79	30.0	0	3	315	0.00	29.806 
12:05	35.9	35.9	35.9	79	30.0	0	2	292	0.00	29.806 
12:10	36.0	36.0	36.0	78	29.8	1	4	315	0.00	29.806 
12:15	36.2	36.2	36.2	80	30.6	0	3	292	0.00	29.806 
12:20	36.3	36.3	36.3	80	30.7	0	2	315	0.00	29.806 
12:25	36.5	36.5	36.5	79	30.6	0	2	315	0.00	29.806 
12:30	36.5	36.5	36.5	79	30.6	1	3	315	0.00	29.802 
12:35	36.6	36.6	36.6	77	30.1	1	4	315	0.00	29.802 
12:40	36.8	36.8	36.8	78	30.6	1	4	315	0.00	29.802 
12:45	36.8	36.8	36.8	78	30.6	1	3	270	0.00	29.800 
12:50	36.9	36.9	36.9	77	30.4	1	6	292	0.00	29.800 
12:55	36.8	36.8	36.8	77	30.3	1	7	292	0.00	29.800 
13:00	36.8	36.8	36.8	77	30.3	1	5	270	0.00	29.797 
13:05	36.9	36.9	36.9	77	30.4	0	4	248	0.00	29.797 
13:10	37.0	37.0	37.0	75	29.8	1	6	292	0.00	29.797 
13:15	37.0	37.0	37.0	75	29.8	1	4	270	0.00	29.799 
13:20	37.0	37.0	37.0	73	29.2	1	5	338	0.00	29.799 
13:25	37.0	37.0	37.0	73	29.2	1	5	338	0.00	29.799 
13:30	37.0	37.0	37.0	74	29.5	1	4	292	0.00	29.800 
13:35	37.0	37.0	37.0	74	29.5	1	4	338	0.00	29.800 
13:40	37.0	37.0	37.0	73	29.2	1	5	292	0.00	29.800 
13:45	37.0	37.0	37.0	73	29.2	1	4	338	0.00	29.801 
13:50	37.2	37.2	37.2	72	29.0	2	5	315	0.00	29.801 
13:55	37.3	37.3	37.3	73	29.5	1	3	315	0.00	29.801 
14:00	37.5	37.5	37.5	74	30.0	1	4	270	0.00	29.802 
14:05	37.2	37.2	37.2	75	30.0	1	4	338	0.00	29.802 
14:10	37.0	37.0	37.0	76	30.2	1	3	315	0.00	29.802 
14:15	36.9	36.9	36.9	78	30.7	1	4	270	0.00	29.805 
14:20	36.9	36.9	36.9	77	30.4	1	5	270	0.00	29.805 
14:25	36.6	36.6	36.6	78	30.4	1	6	315	0.00	29.805 
14:30	36.5	36.5	36.5	77	30.0	2	7	270	0.00	29.812 
14:35	36.5	36.5	36.5	78	30.3	1	5	270	0.00	29.812 
14:40	36.5	36.5	36.5	78	30.3	2	5	292	0.00	29.812 
14:45	36.5	36.5	36.5	79	30.6	2	4	315	0.00	29.816 
14:50	36.3	36.3	36.3	79	30.4	1	3	248	0.00	29.816 
14:55	36.3	36.3	36.3	77	29.8	2	4	315	0.00	29.816 
15:00	36.2	36.2	36.2	77	29.7	2	5	315	0.00	29.820 
15:05	36.0	36.0	36.0	77	29.5	2	5	292	0.00	29.820 
15:10	36.0	36.0	36.0	77	29.5	2	6	270	0.00	29.820 
15:15	36.0	36.0	36.0	76	29.2	2	5	292	0.00	29.829 
15:20	36.0	36.0	36.0	76	29.2	1	4	270	0.00	29.829 
15:25	36.0	36.0	36.0	77	29.5	1	2	0	0.00	29.829 
15:30	36.0	36.0	36.0	78	29.8	1	4	338	0.00	29.833 
15:35	36.0	36.0	36.0	78	29.8	1	5	315	0.00	29.833 
15:40	35.9	35.9	35.9	78	29.7	2	5	315	0.00	29.833 
15:45	35.8	35.8	35.8	78	29.6	1	3	315	0.00	29.837 
15:50	35.8	35.8	35.8	79	29.9	1	5	315	0.00	29.837 
15:55	35.6	35.6	35.6	78	29.4	2	6	315	0.00	29.837 
16:00	35.6	35.6	35.6	79	29.7	1	3	270	0.00	29.847 
16:05	35.6	35.6	35.6	79	29.7	1	3	315	0.00	29.847 
16:10	35.5	35.5	35.5	78	29.3	2	5	292	0.00	29.847 
16:15	35.5	35.5	35.5	78	29.3	1	4	270	0.00	29.856 
16:20	35.5	35.5	35.5	78	29.3	1	4	270	0.00	29.856 
16:25	35.5	35.5	35.5	78	29.3	1	3	315	0.00	29.856 
16:30	35.5	35.5	35.5	77	29.0	1	4	270	0.00	29.863 
16:35	35.5	35.5	35.5	77	29.0	1	6	292	0.00	29.863 
16:40	35.5	35.5	35.5	77	29.0	1	4	248	0.00	29.863 
16:45	35.3	35.3	35.3	77	28.8	2	4	270	0.00	29.867 
16:50	35.3	35.3	35.3	77	28.8	1	3	315	0.00	29.867 
16:55	35.2	35.2	35.2	78	29.0	1	3	292	0.00	29.867 
17:00	35.2	35.2	35.2	78	29.0	1	3	248	0.00	29.872 
17:05	35.0	35.0	35.0	78	28.8	1	4	270	0.00	29.872 
17:10	35.0	35.0	35.0	78	28.8	1	4	270	0.00	29.872 
17:15	34.9	34.9	34.9	78	28.7	1	4	270	0.00	29.880 
17:20	34.9	34.9	34.9	77	28.4	2	6	292	0.00	29.880 
17:25	35.0	35.0	35.0	77	28.5	1	3	338	0.00	29.880 
17:30	34.9	34.9	34.9	77	28.4	1	3	292	0.00	29.883 
17:35	34.9	34.9	34.9	76	28.1	1	3	270	0.00	29.883 
17:40	35.0	35.0	35.0	76	28.2	1	3	292	0.00	29.883 
17:45	35.0	35.0	35.0	75	27.9	2	6	270	0.00	29.889 
17:50	34.9	34.9	34.9	75	27.8	2	3	270	0.00	29.889 
17:55	34.9	34.9	34.9	75	27.8	2	7	270	0.00	29.889 
18:00	34.9	34.9	34.9	75	27.8	1	4	270	0.00	29.896 
18:05	34.9	34.9	34.9	76	28.1	2	7	270	0.00	29.896 
18:10	34.7	34.7	34.7	77	28.2	2	4	270	0.00	29.896 
18:15	34.7	34.7	34.7	78	28.6	1	3	292	0.00	29.898 
18:20	34.6	34.6	34.6	78	28.5	2	4	270	0.00	29.898 
18:25	34.6	34.6	34.6	78	28.5	1	3	270	0.00	29.898 
18:30	34.6	34.6	34.6	78	28.5	1	3	292	0.00	29.898 
18:35	34.4	34.4	34.4	79	28.6	1	4	270	0.00	29.898 
18:40	34.4	34.4	34.4	78	28.3	1	5	270	0.00	29.898 
18:45	34.4	34.4	34.4	77	27.9	1	3	315	0.00	29.899 
18:50	34.4	34.4	34.4	77	27.9	1	2	292	0.00	29.899 
18:55	34.4	34.4	34.4	77	27.9	0	2	270	0.00	29.899 
19:00	34.3	34.3	34.3	77	27.9	0	1	270	0.00	29.902 
19:05	34.3	34.3	34.3	77	27.9	1	3	248	0.00	29.902 
19:10	34.3	34.3	34.3	77	27.9	1	4	292	0.00	29.902 
19:15	34.3	34.3	34.3	77	27.9	1	5	292	0.00	29.909 
19:20	34.1	34.1	34.1	79	28.3	2	5	270	0.00	29.909 
19:25	34.0	34.0	34.0	80	28.5	0	2	270	0.00	29.909 
19:30	33.8	33.8	33.8	81	28.6	1	4	270	0.00	29.911 
19:35	33.7	33.7	33.7	80	28.2	2	6	270	0.00	29.911 
19:40	33.7	33.7	33.7	80	28.2	2	4	270	0.00	29.911 
19:45	33.5	33.5	33.5	81	28.3	2	5	248	0.00	29.912 
19:50	33.5	33.5	33.5	80	28.0	2	6	248	0.00	29.912 
19:55	33.4	33.4	33.4	80	27.9	2	4	270	0.00	29.912 
20:00	33.4	33.4	33.4	81	28.2	2	5	270	0.00	29.916 
20:05	33.4	33.4	33.4	81	28.2	1	5	270	0.00	29.916 
20:10	33.4	33.4	33.4	80	27.9	2	5	270	0.00	29.916 
20:15	33.4	33.4	33.4	80	27.9	2	6	270	0.00	29.919 
20:20	33.4	33.4	33.4	80	27.9	2	5	270	0.00	29.919 
20:25	33.4	33.4	33.4	80	27.9	2	9	270	0.00	29.919 
20:30	33.2	33.2	33.2	80	27.7	2	6	270	0.00	29.917 
20:35	33.2	33.2	33.2	80	27.7	2	5	270	0.00	29.917 
20:40	33.2	33.2	33.2	80	27.7	1	4	270	0.00	29.917 
20:45	33.2	33.2	33.2	79	27.4	2	5	270	0.00	29.926 
20:50	33.1	33.1	33.1	79	27.3	2	4	270	0.00	29.926 
20:55	33.1	33.1	33.1	79	27.3	2	5	270	0.00	29.926 
21:00	33.1	33.1	33.1	79	27.3	2	5	270	0.00	29.921 
21:05	33.1	33.1	33.1	78	27.0	1	4	270	0.00	29.921 
21:10	32.9	32.9	32.9	78	26.8	2	4	270	0.00	29.921 
21:15	32.9	32.9	32.9	78	26.8	2	4	270	0.00	29.925 
21:20	32.9	32.9	32.9	78	26.8	1	4	270	0.00	29.925 
21:25	32.9	32.9	32.9	78	26.8	1	4	270	0.00	29.925 
21:30	32.8	32.8	32.8	76	26.1	2	7	270	0.00	29.922 
21:35	32.9	32.9	32.9	76	26.2	2	4	270	0.00	29.922 
21:40	32.9	32.9	32.9	74	25.5	2	5	292	0.00	29.922 
21:45	32.9	32.9	32.9	74	25.5	1	5	270	0.00	29.926 
21:50	32.9	32.9	32.9	74	25.5	2	6	270	0.00	29.926 
21:55	32.9	32.9	32.9	74	25.5	1	4	248	0.00	29.926 
22:00	32.8	32.8	32.8	75	25.8	0	2	248	0.00	29.927 
22:05	32.8	32.8	32.8	75	25.8	1	2	248	0.00	29.927 
22:10	32.8	32.8	32.8	75	25.8	1	3	270	0.00	29.927 
22:15	32.8	32.8	32.8	74	25.4	1	3	270	0.00	29.930 
22:20	32.8	32.8	32.8	74	25.4	1	3	270	0.00	29.930 
22:25	32.7	32.7	32.7	73	25.0	1	2	248	0.00	29.930 
22:30	32.8	32.8	32.8	73	25.1	1	5	248	0.00	29.930 
22:35	32.8	32.8	32.8	73	25.1	1	4	248	0.00	29.930 
22:40	32.8	32.8	32.8	74	25.4	1	3	248	0.00	29.930 
22:45	32.8	29.0	32.8	76	26.1	4	11	270	0.00	29.928 
22:50	32.7	32.7	32.7	76	26.0	2	6	270	0.00	29.928 
22:55	32.4	32.4	32.4	77	26.0	3	9	270	0.00	29.928 
23:00	32.2	28.3	32.2	77	25.8	4	13	270	0.00	29.929 
23:05	32.1	32.1	32.1	78	26.0	2	5	270	0.00	29.929 
23:10	31.9	31.9	31.9	78	25.8	3	7	270	0.00	29.929 
23:15	31.8	31.8	31.8	79	26.0	2	6	248	0.00	29.927 
23:20	31.6	31.6	31.6	80	26.2	2	8	248	0.00	29.927 
23:25	31.3	31.3	31.3	80	25.9	2	5	248	0.00	29.927 
23:30	31.3	31.3	31.3	81	26.2	3	10	248	0.00	29.940 
23:35	31.2	27.2	31.2	81	26.1	4	10	270	0.00	29.940 
23:40	31.0	31.0	31.0	81	25.9	3	7	270	0.00	29.940 
23:45	30.9	30.9	30.9	81	25.8	2	6	248	0.00	29.945 
23:50	30.9	30.9	30.9	81	25.8	2	7	248	0.00	29.945 
23:55	30.9	30.9	30.9	81	25.8	1	3	248	0.00	29.945 

CoCoRaHS
IN-AL-39
A2 Web Hosting
Creative Commons License
GoDaddy
Look for:

loaded 2017-12-11 06:55:58 • last modified 2010-11-18 10:43:29
Privacy PolicyDisclaimer
• wx.awcolley.com is powered by PmWiki v.2002016 •
• all content (unless otherwise noted) © 2017 A W Colley